sensor_id;sensor_type;location;lat;lon;timestamp;pressure;altitude;pressure_sealevel;temperature;humidity
3132;BME280;62090;52.330;9.104;2022-09-09T00:01:47;100309.06;;;17.27;94.80
3132;BME280;62090;52.330;9.104;2022-09-09T00:04:26;100302.97;;;17.34;94.36
3132;BME280;62090;52.330;9.104;2022-09-09T00:07:03;100313.25;;;17.36;93.97
3132;BME280;62090;52.330;9.104;2022-09-09T00:09:39;100302.19;;;17.27;93.79
3132;BME280;62090;52.330;9.104;2022-09-09T00:12:16;100307.34;;;17.27;94.07
3132;BME280;62090;52.330;9.104;2022-09-09T00:14:51;100305.72;;;17.14;93.59
3132;BME280;62090;52.330;9.104;2022-09-09T00:17:34;100319.56;;;17.04;93.58
3132;BME280;62090;52.330;9.104;2022-09-09T00:20:12;100308.44;;;16.98;94.27
3132;BME280;62090;52.330;9.104;2022-09-09T00:22:47;100313.50;;;17.10;94.29
3132;BME280;62090;52.330;9.104;2022-09-09T00:25:26;100291.25;;;17.03;94.38
3132;BME280;62090;52.330;9.104;2022-09-09T00:28:00;100304.88;;;17.14;93.96
3132;BME280;62090;52.330;9.104;2022-09-09T00:30:32;100296.34;;;17.09;94.04
3132;BME280;62090;52.330;9.104;2022-09-09T00:33:11;100286.94;;;17.08;93.65
3132;BME280;62090;52.330;9.104;2022-09-09T00:35:44;100287.75;;;17.10;93.68
3132;BME280;62090;52.330;9.104;2022-09-09T00:38:18;100275.75;;;17.09;93.88
3132;BME280;62090;52.330;9.104;2022-09-09T00:40:52;100288.50;;;17.21;93.36
3132;BME280;62090;52.330;9.104;2022-09-09T00:43:29;100291.09;;;17.21;92.95
3132;BME280;62090;52.330;9.104;2022-09-09T00:49:04;100301.44;;;17.15;93.33
3132;BME280;62090;52.330;9.104;2022-09-09T00:51:46;100279.31;;;16.97;93.35
3132;BME280;62090;52.330;9.104;2022-09-09T00:54:31;100287.81;;;17.05;93.40
3132;BME280;62090;52.330;9.104;2022-09-09T00:57:14;100299.81;;;17.06;93.13
3132;BME280;62090;52.330;9.104;2022-09-09T00:59:53;100293.84;;;17.00;93.68
3132;BME280;62090;52.330;9.104;2022-09-09T01:02:28;100295.63;;;16.96;93.77
3132;BME280;62090;52.330;9.104;2022-09-09T01:05:04;100296.44;;;16.98;93.64
3132;BME280;62090;52.330;9.104;2022-09-09T01:07:35;100295.66;;;16.88;93.91
3132;BME280;62090;52.330;9.104;2022-09-09T01:10:10;100288.84;;;16.81;94.49
3132;BME280;62090;52.330;9.104;2022-09-09T01:12:47;100300.00;;;16.82;94.67
3132;BME280;62090;52.330;9.104;2022-09-09T01:15:25;100294.91;;;16.77;94.54
3132;BME280;62090;52.330;9.104;2022-09-09T01:17:59;100294.97;;;16.70;94.97
3132;BME280;62090;52.330;9.104;2022-09-09T01:20:39;100287.31;;;16.56;95.72
3132;BME280;62090;52.330;9.104;2022-09-09T01:26:30;100294.28;;;16.42;98.34
3132;BME280;62090;52.330;9.104;2022-09-09T01:29:08;100285.72;;;16.43;99.45
3132;BME280;62090;52.330;9.104;2022-09-09T01:31:42;100286.56;;;16.43;99.02
3132;BME280;62090;52.330;9.104;2022-09-09T01:34:13;100288.25;;;16.49;99.71
3132;BME280;62090;52.330;9.104;2022-09-09T01:36:46;100271.13;;;16.42;100.00
3132;BME280;62090;52.330;9.104;2022-09-09T01:39:17;100280.53;;;16.46;100.00
3132;BME280;62090;52.330;9.104;2022-09-09T01:41:59;100289.09;;;16.46;99.97
3132;BME280;62090;52.330;9.104;2022-09-09T01:44:29;100274.56;;;16.39;99.94
3132;BME280;62090;52.330;9.104;2022-09-09T01:47:00;100289.03;;;16.57;99.51
3132;BME280;62090;52.330;9.104;2022-09-09T01:49:31;100270.16;;;16.58;98.84
3132;BME280;62090;52.330;9.104;2022-09-09T01:52:08;100265.00;;;16.57;98.50
3132;BME280;62090;52.330;9.104;2022-09-09T01:54:38;100279.53;;;16.67;98.24
3132;BME280;62090;52.330;9.104;2022-09-09T01:57:20;100280.28;;;16.82;97.63
3132;BME280;62090;52.330;9.104;2022-09-09T02:00:01;100275.94;;;16.89;97.02
3132;BME280;62090;52.330;9.104;2022-09-09T02:02:46;100260.50;;;16.89;96.58
3132;BME280;62090;52.330;9.104;2022-09-09T02:05:30;100274.13;;;16.99;96.19
3132;BME280;62090;52.330;9.104;2022-09-09T02:08:18;100281.03;;;16.92;95.89
3132;BME280;62090;52.330;9.104;2022-09-09T02:11:01;100281.94;;;16.89;95.92
3132;BME280;62090;52.330;9.104;2022-09-09T02:13:45;100290.56;;;16.85;95.94
3132;BME280;62090;52.330;9.104;2022-09-09T02:16:22;100292.41;;;16.70;95.09
3132;BME280;62090;52.330;9.104;2022-09-09T02:18:57;100284.84;;;16.39;96.99
3132;BME280;62090;52.330;9.104;2022-09-09T02:21:44;100289.31;;;16.18;98.84
3132;BME280;62090;52.330;9.104;2022-09-09T02:24:16;100276.47;;;16.09;100.00
3132;BME280;62090;52.330;9.104;2022-09-09T02:26:54;100261.16;;;15.96;100.00
3132;BME280;62090;52.330;9.104;2022-09-09T02:29:31;100284.19;;;16.09;100.00
3132;BME280;62090;52.330;9.104;2022-09-09T02:32:06;100288.44;;;16.16;100.00
3132;BME280;62090;52.330;9.104;2022-09-09T02:34:43;100242.31;;;15.91;100.00
3132;BME280;62090;52.330;9.104;2022-09-09T02:37:15;100286.75;;;16.10;100.00
3132;BME280;62090;52.330;9.104;2022-09-09T02:39:51;100265.38;;;16.03;100.00
3132;BME280;62090;52.330;9.104;2022-09-09T02:42:22;100268.72;;;16.13;100.00
3132;BME280;62090;52.330;9.104;2022-09-09T02:44:56;100289.25;;;16.28;100.00
3132;BME280;62090;52.330;9.104;2022-09-09T02:47:33;100285.00;;;16.23;100.00
3132;BME280;62090;52.330;9.104;2022-09-09T02:50:13;100273.81;;;16.24;100.00
3132;BME280;62090;52.330;9.104;2022-09-09T02:52:57;100285.75;;;16.37;100.00
3132;BME280;62090;52.330;9.104;2022-09-09T02:55:38;100289.22;;;16.33;100.00
3132;BME280;62090;52.330;9.104;2022-09-09T02:58:13;100291.78;;;16.33;100.00
3132;BME280;62090;52.330;9.104;2022-09-09T03:00:57;100302.88;;;16.35;100.00
3132;BME280;62090;52.330;9.104;2022-09-09T03:03:29;100291.84;;;16.22;100.00
3132;BME280;62090;52.330;9.104;2022-09-09T03:06:03;100304.59;;;16.36;100.00
3132;BME280;62090;52.330;9.104;2022-09-09T03:08:33;100301.13;;;16.41;100.00
3132;BME280;62090;52.330;9.104;2022-09-09T03:11:04;100304.53;;;16.48;100.00
3132;BME280;62090;52.330;9.104;2022-09-09T03:13:36;100309.69;;;16.48;100.00
3132;BME280;62090;52.330;9.104;2022-09-09T03:16:08;100302.81;;;16.47;100.00
3132;BME280;62090;52.330;9.104;2022-09-09T03:18:43;100304.53;;;16.45;100.00
3132;BME280;62090;52.330;9.104;2022-09-09T03:21:13;100307.97;;;16.47;100.00
3132;BME280;62090;52.330;9.104;2022-09-09T03:23:43;100312.22;;;16.54;100.00
3132;BME280;62090;52.330;9.104;2022-09-09T03:26:14;100312.22;;;16.59;100.00
3132;BME280;62090;52.330;9.104;2022-09-09T03:28:46;100306.19;;;16.58;100.00
3132;BME280;62090;52.330;9.104;2022-09-09T03:31:20;100307.91;;;16.59;100.00
3132;BME280;62090;52.330;9.104;2022-09-09T03:33:51;100310.50;;;16.55;100.00
3132;BME280;62090;52.330;9.104;2022-09-09T03:36:21;100313.94;;;16.52;100.00
3132;BME280;62090;52.330;9.104;2022-09-09T03:38:50;100304.50;;;16.54;100.00
3132;BME280;62090;52.330;9.104;2022-09-09T03:41:22;100278.88;;;16.34;100.00
3132;BME280;62090;52.330;9.104;2022-09-09T03:43:53;100308.78;;;16.51;100.00
3132;BME280;62090;52.330;9.104;2022-09-09T03:46:27;100302.75;;;16.65;100.00
3132;BME280;62090;52.330;9.104;2022-09-09T03:48:58;100306.09;;;16.72;100.00
3132;BME280;62090;52.330;9.104;2022-09-09T03:51:30;100296.69;;;16.68;100.00
3132;BME280;62090;52.330;9.104;2022-09-09T03:54:04;100303.44;;;16.85;100.00
3132;BME280;62090;52.330;9.104;2022-09-09T03:56:37;100310.16;;;17.00;100.00
3132;BME280;62090;52.330;9.104;2022-09-09T03:59:11;100298.94;;;17.07;100.00
3132;BME280;62090;52.330;9.104;2022-09-09T04:01:44;100295.38;;;17.19;99.80
3132;BME280;62090;52.330;9.104;2022-09-09T04:04:15;100307.34;;;17.26;99.16
3132;BME280;62090;52.330;9.104;2022-09-09T04:06:46;100301.34;;;17.24;99.23
3132;BME280;62090;52.330;9.104;2022-09-09T04:09:17;100304.69;;;17.34;99.22
3132;BME280;62090;52.330;9.104;2022-09-09T04:11:48;100303.84;;;17.33;98.36
3132;BME280;62090;52.330;9.104;2022-09-09T04:14:20;100304.66;;;17.35;98.03
3132;BME280;62090;52.330;9.104;2022-09-09T04:16:52;100314.16;;;17.33;98.21
3132;BME280;62090;52.330;9.104;2022-09-09T04:19:25;100311.53;;;17.35;98.18
3132;BME280;62090;52.330;9.104;2022-09-09T04:21:55;100298.59;;;17.41;97.77
3132;BME280;62090;52.330;9.104;2022-09-09T04:24:25;100293.50;;;17.39;97.40
3132;BME280;62090;52.330;9.104;2022-09-09T04:26:56;100290.13;;;17.29;97.22
3132;BME280;62090;52.330;9.104;2022-09-09T04:29:26;100305.56;;;17.31;97.40
3132;BME280;62090;52.330;9.104;2022-09-09T04:31:58;100286.91;;;17.11;97.95
3132;BME280;62090;52.330;9.104;2022-09-09T04:34:28;100313.44;;;17.16;98.61
3132;BME280;62090;52.330;9.104;2022-09-09T04:36:58;100301.53;;;17.04;98.67
3132;BME280;62090;52.330;9.104;2022-09-09T04:39:28;100304.06;;;17.10;99.04
3132;BME280;62090;52.330;9.104;2022-09-09T04:41:59;100307.44;;;17.14;98.99
3132;BME280;62090;52.330;9.104;2022-09-09T04:44:30;100311.72;;;17.18;99.05
3132;BME280;62090;52.330;9.104;2022-09-09T04:47:02;100309.16;;;17.15;98.94
3132;BME280;62090;52.330;9.104;2022-09-09T04:49:31;100311.78;;;17.10;99.64
3132;BME280;62090;52.330;9.104;2022-09-09T04:52:02;100317.06;;;16.97;99.88
3132;BME280;62090;52.330;9.104;2022-09-09T04:54:33;100277.81;;;16.70;100.00
3132;BME280;62090;52.330;9.104;2022-09-09T04:57:04;100290.72;;;16.64;100.00
3132;BME280;62090;52.330;9.104;2022-09-09T04:59:35;100316.41;;;16.70;100.00
3132;BME280;62090;52.330;9.104;2022-09-09T05:02:08;100321.53;;;16.73;100.00
3132;BME280;62090;52.330;9.104;2022-09-09T05:04:38;100322.44;;;16.66;100.00
3132;BME280;62090;52.330;9.104;2022-09-09T05:07:08;100303.63;;;16.52;100.00
3132;BME280;62090;52.330;9.104;2022-09-09T05:09:39;100318.13;;;16.68;100.00
3132;BME280;62090;52.330;9.104;2022-09-09T05:12:09;100325.81;;;16.74;100.00
3132;BME280;62090;52.330;9.104;2022-09-09T05:14:46;100314.66;;;16.72;100.00
3132;BME280;62090;52.330;9.104;2022-09-09T05:17:18;100323.19;;;16.79;100.00
3132;BME280;62090;52.330;9.104;2022-09-09T05:19:48;100331.78;;;16.76;100.00
3132;BME280;62090;52.330;9.104;2022-09-09T05:22:19;100330.09;;;16.71;100.00
3132;BME280;62090;52.330;9.104;2022-09-09T05:24:52;100313.03;;;16.61;100.00
3132;BME280;62090;52.330;9.104;2022-09-09T05:27:22;100332.69;;;16.72;100.00
3132;BME280;62090;52.330;9.104;2022-09-09T05:29:51;100340.41;;;16.75;100.00
3132;BME280;62090;52.330;9.104;2022-09-09T05:32:23;100313.84;;;16.66;100.00
3132;BME280;62090;52.330;9.104;2022-09-09T05:34:53;100342.97;;;16.75;100.00
3132;BME280;62090;52.330;9.104;2022-09-09T05:37:23;100336.09;;;16.76;100.00
3132;BME280;62090;52.330;9.104;2022-09-09T05:39:54;100332.69;;;16.71;100.00
3132;BME280;62090;52.330;9.104;2022-09-09T05:42:29;100341.19;;;16.82;100.00
3132;BME280;62090;52.330;9.104;2022-09-09T05:45:00;100357.47;;;16.85;100.00
3132;BME280;62090;52.330;9.104;2022-09-09T05:47:32;100348.81;;;16.93;100.00
3132;BME280;62090;52.330;9.104;2022-09-09T05:50:02;100351.22;;;17.14;100.00
3132;BME280;62090;52.330;9.104;2022-09-09T05:52:32;100346.03;;;17.20;100.00
3132;BME280;62090;52.330;9.104;2022-09-09T05:55:05;100355.50;;;17.16;100.00
3132;BME280;62090;52.330;9.104;2022-09-09T05:57:35;100349.63;;;17.02;100.00
3132;BME280;62090;52.330;9.104;2022-09-09T06:00:07;100354.75;;;17.04;100.00
3132;BME280;62090;52.330;9.104;2022-09-09T06:02:50;100338.28;;;17.23;100.00
3132;BME280;62090;52.330;9.104;2022-09-09T06:05:21;100341.78;;;17.16;100.00
3132;BME280;62090;52.330;9.104;2022-09-09T06:07:54;100344.38;;;17.11;100.00
3132;BME280;62090;52.330;9.104;2022-09-09T06:10:24;100336.66;;;17.10;100.00
3132;BME280;62090;52.330;9.104;2022-09-09T06:12:54;100336.59;;;17.19;100.00
3132;BME280;62090;52.330;9.104;2022-09-09T06:15:23;100331.41;;;17.22;100.00
3132;BME280;62090;52.330;9.104;2022-09-09T06:17:56;100345.16;;;17.22;100.00
3132;BME280;62090;52.330;9.104;2022-09-09T06:20:26;100335.84;;;17.08;100.00
3132;BME280;62090;52.330;9.104;2022-09-09T06:22:57;100343.63;;;16.99;100.00
3132;BME280;62090;52.330;9.104;2022-09-09T06:25:28;100322.22;;;16.97;100.00
3132;BME280;62090;52.330;9.104;2022-09-09T06:27:58;100324.69;;;17.06;100.00
3132;BME280;62090;52.330;9.104;2022-09-09T06:30:29;100341.72;;;17.22;100.00
3132;BME280;62090;52.330;9.104;2022-09-09T06:33:02;100326.22;;;17.28;100.00
3132;BME280;62090;52.330;9.104;2022-09-09T06:35:31;100321.13;;;17.19;100.00
3132;BME280;62090;52.330;9.104;2022-09-09T06:38:01;100324.50;;;17.28;100.00
3132;BME280;62090;52.330;9.104;2022-09-09T06:40:32;100332.94;;;17.41;100.00
3132;BME280;62090;52.330;9.104;2022-09-09T06:43:02;100340.63;;;17.46;100.00
3132;BME280;62090;52.330;9.104;2022-09-09T06:45:37;100339.00;;;17.37;100.00
3132;BME280;62090;52.330;9.104;2022-09-09T06:48:10;100319.16;;;17.45;100.00
3132;BME280;62090;52.330;9.104;2022-09-09T06:50:40;100325.00;;;17.65;100.00
3132;BME280;62090;52.330;9.104;2022-09-09T06:53:10;100328.38;;;17.70;100.00
3132;BME280;62090;52.330;9.104;2022-09-09T06:55:40;100334.88;;;18.00;100.00
3132;BME280;62090;52.330;9.104;2022-09-09T06:58:12;100329.66;;;18.06;100.00
3132;BME280;62090;52.330;9.104;2022-09-09T07:00:41;100319.22;;;18.15;100.00
3132;BME280;62090;52.330;9.104;2022-09-09T07:03:14;100320.66;;;18.35;100.00
3132;BME280;62090;52.330;9.104;2022-09-09T07:05:53;100318.75;;;18.50;100.00
3132;BME280;62090;52.330;9.104;2022-09-09T07:08:25;100328.03;;;18.64;100.00
3132;BME280;62090;52.330;9.104;2022-09-09T07:11:02;100312.63;;;18.58;100.00
3132;BME280;62090;52.330;9.104;2022-09-09T07:13:38;100315.00;;;18.71;100.00
3132;BME280;62090;52.330;9.104;2022-09-09T07:16:11;100331.03;;;18.91;100.00
3132;BME280;62090;52.330;9.104;2022-09-09T07:18:47;100317.25;;;18.91;100.00
3132;BME280;62090;52.330;9.104;2022-09-09T07:21:19;100330.94;;;18.96;100.00
3132;BME280;62090;52.330;9.104;2022-09-09T07:23:49;100334.47;;;18.90;100.00
3132;BME280;62090;52.330;9.104;2022-09-09T07:26:20;100333.53;;;18.96;100.00
3132;BME280;62090;52.330;9.104;2022-09-09T07:28:53;100315.28;;;19.05;100.00
3132;BME280;62090;52.330;9.104;2022-09-09T07:31:25;100329.91;;;19.06;99.93
3132;BME280;62090;52.330;9.104;2022-09-09T07:34:01;100337.69;;;19.05;100.00
3132;BME280;62090;52.330;9.104;2022-09-09T07:36:33;100325.94;;;18.87;99.76
3132;BME280;62090;52.330;9.104;2022-09-09T07:39:06;100336.31;;;18.84;100.00
3132;BME280;62090;52.330;9.104;2022-09-09T07:41:39;100340.69;;;18.79;100.00
3132;BME280;62090;52.330;9.104;2022-09-09T07:44:11;100332.09;;;18.78;99.75
3132;BME280;62090;52.330;9.104;2022-09-09T07:46:44;100321.81;;;18.75;99.86
3132;BME280;62090;52.330;9.104;2022-09-09T07:49:21;100349.03;;;18.94;98.73
3132;BME280;62090;52.330;9.104;2022-09-09T07:51:59;100341.44;;;18.87;98.26
3132;BME280;62090;52.330;9.104;2022-09-09T07:54:30;100350.56;;;19.08;98.94
3132;BME280;62090;52.330;9.104;2022-09-09T07:57:03;100354.66;;;19.19;98.43
3132;BME280;62090;52.330;9.104;2022-09-09T07:59:35;100355.06;;;19.47;97.74
3132;BME280;62090;52.330;9.104;2022-09-09T08:02:05;100347.34;;;19.46;97.30
3132;BME280;62090;52.330;9.104;2022-09-09T08:04:38;100350.69;;;19.51;96.73
3132;BME280;62090;52.330;9.104;2022-09-09T08:07:10;100355.03;;;19.50;96.67
3132;BME280;62090;52.330;9.104;2022-09-09T08:09:50;100352.38;;;19.52;94.64
3132;BME280;62090;52.330;9.104;2022-09-09T08:12:26;100354.75;;;19.62;94.58
3132;BME280;62090;52.330;9.104;2022-09-09T08:14:57;100345.47;;;19.54;93.57
3132;BME280;62090;52.330;9.104;2022-09-09T08:17:30;100360.94;;;19.55;93.38
3132;BME280;62090;52.330;9.104;2022-09-09T08:20:07;100352.53;;;19.46;91.68
3132;BME280;62090;52.330;9.104;2022-09-09T08:22:39;100356.66;;;19.54;92.05
3132;BME280;62090;52.330;9.104;2022-09-09T08:25:08;100351.28;;;19.65;92.73
3132;BME280;62090;52.330;9.104;2022-09-09T08:27:38;100363.19;;;19.73;92.01
3132;BME280;62090;52.330;9.104;2022-09-09T08:30:11;100357.03;;;19.79;90.90
3132;BME280;62090;52.330;9.104;2022-09-09T08:32:41;100360.28;;;19.90;91.00
3132;BME280;62090;52.330;9.104;2022-09-09T08:35:16;100348.28;;;19.86;91.52
3132;BME280;62090;52.330;9.104;2022-09-09T08:37:53;100353.13;;;20.03;91.34
3132;BME280;62090;52.330;9.104;2022-09-09T08:40:29;100353.13;;;20.03;89.77
3132;BME280;62090;52.330;9.104;2022-09-09T08:43:04;100353.06;;;20.04;91.69
3132;BME280;62090;52.330;9.104;2022-09-09T08:45:43;100363.13;;;20.19;89.67
3132;BME280;62090;52.330;9.104;2022-09-09T08:48:35;100358.31;;;20.01;89.17
3132;BME280;62090;52.330;9.104;2022-09-09T08:51:12;100378.03;;;20.08;90.19
3132;BME280;62090;52.330;9.104;2022-09-09T08:53:46;100373.59;;;20.13;89.31
3132;BME280;62090;52.330;9.104;2022-09-09T08:56:20;100377.84;;;20.16;88.63
3132;BME280;62090;52.330;9.104;2022-09-09T08:58:55;100370.97;;;20.15;88.25
3132;BME280;62090;52.330;9.104;2022-09-09T09:01:44;100384.59;;;20.23;88.13
3132;BME280;62090;52.330;9.104;2022-09-09T09:04:41;100358.00;;;20.16;86.82
3132;BME280;62090;52.330;9.104;2022-09-09T09:07:25;100386.16;;;20.32;87.29
3132;BME280;62090;52.330;9.104;2022-09-09T09:10:11;100357.72;;;20.30;88.42
3132;BME280;62090;52.330;9.104;2022-09-09T09:13:08;100389.34;;;20.46;87.23
3132;BME280;62090;52.330;9.104;2022-09-09T09:15:48;100379.16;;;20.37;87.05
3132;BME280;62090;52.330;9.104;2022-09-09T09:18:20;100386.16;;;20.33;88.37
3132;BME280;62090;52.330;9.104;2022-09-09T09:20:57;100391.25;;;20.36;87.30
3132;BME280;62090;52.330;9.104;2022-09-09T09:23:35;100380.94;;;20.35;86.50
3132;BME280;62090;52.330;9.104;2022-09-09T09:26:09;100381.63;;;20.43;87.76
3132;BME280;62090;52.330;9.104;2022-09-09T09:28:42;100392.94;;;20.77;86.82
3132;BME280;62090;52.330;9.104;2022-09-09T09:31:18;100378.53;;;21.02;84.54
3132;BME280;62090;52.330;9.104;2022-09-09T09:33:51;100388.28;;;21.28;82.71
3132;BME280;62090;52.330;9.104;2022-09-09T09:36:33;100389.16;;;21.27;83.78
3132;BME280;62090;52.330;9.104;2022-09-09T09:39:06;100387.91;;;21.42;83.87
3132;BME280;62090;52.330;9.104;2022-09-09T09:42:08;100373.25;;;21.73;80.97
3132;BME280;62090;52.330;9.104;2022-09-09T09:44:45;100331.50;;;21.82;80.02
3132;BME280;62090;52.330;9.104;2022-09-09T09:47:19;100354.81;;;22.15;78.38
3132;BME280;62090;52.330;9.104;2022-09-09T09:50:00;100350.25;;;22.23;78.56
3132;BME280;62090;52.330;9.104;2022-09-09T09:52:37;100368.22;;;22.29;79.70
3132;BME280;62090;52.330;9.104;2022-09-09T09:55:14;100339.97;;;22.20;77.92
3132;BME280;62090;52.330;9.104;2022-09-09T09:57:46;100370.66;;;22.35;78.81
3132;BME280;62090;52.330;9.104;2022-09-09T10:00:18;100365.09;;;22.18;78.28
3132;BME280;62090;52.330;9.104;2022-09-09T10:02:56;100356.81;;;22.05;79.03
3132;BME280;62090;52.330;9.104;2022-09-09T10:05:30;100351.75;;;22.01;78.23
3132;BME280;62090;52.330;9.104;2022-09-09T10:08:11;100358.94;;;21.89;79.14
3132;BME280;62090;52.330;9.104;2022-09-09T10:11:02;100380.13;;;21.74;82.04
3132;BME280;62090;52.330;9.104;2022-09-09T10:13:41;100371.72;;;21.34;85.97
3132;BME280;62090;52.330;9.104;2022-09-09T10:16:24;100377.69;;;21.00;88.66
3132;BME280;62090;52.330;9.104;2022-09-09T10:18:59;100365.13;;;20.85;89.49
3132;BME280;62090;52.330;9.104;2022-09-09T10:21:43;100357.22;;;20.90;89.05
3132;BME280;62090;52.330;9.104;2022-09-09T10:24:39;100357.31;;;20.87;89.33
3132;BME280;62090;52.330;9.104;2022-09-09T10:27:19;100356.22;;;20.95;89.78
3132;BME280;62090;52.330;9.104;2022-09-09T10:30:01;100368.75;;;21.14;86.32
3132;BME280;62090;52.330;9.104;2022-09-09T10:32:46;100366.91;;;21.19;85.92
3132;BME280;62090;52.330;9.104;2022-09-09T10:35:29;100366.13;;;21.49;86.91
3132;BME280;62090;52.330;9.104;2022-09-09T10:38:18;100369.44;;;21.54;84.55
3132;BME280;62090;52.330;9.104;2022-09-09T10:41:05;100354.03;;;21.80;85.16
3132;BME280;62090;52.330;9.104;2022-09-09T10:43:49;100363.22;;;22.23;83.63
3132;BME280;62090;52.330;9.104;2022-09-09T10:46:32;100357.94;;;22.26;81.75
3132;BME280;62090;52.330;9.104;2022-09-09T10:49:17;100355.03;;;22.07;80.29
3132;BME280;62090;52.330;9.104;2022-09-09T10:51:57;100321.25;;;21.78;83.81
3132;BME280;62090;52.330;9.104;2022-09-09T10:54:45;100345.41;;;21.80;83.83
3132;BME280;62090;52.330;9.104;2022-09-09T10:57:28;100360.94;;;21.81;82.60
3132;BME280;62090;52.330;9.104;2022-09-09T11:00:03;100358.41;;;21.78;83.22
3132;BME280;62090;52.330;9.104;2022-09-09T11:02:35;100356.31;;;21.91;85.90
3132;BME280;62090;52.330;9.104;2022-09-09T11:05:14;100363.66;;;22.08;86.13
3132;BME280;62090;52.330;9.104;2022-09-09T11:07:49;100373.44;;;21.67;85.24
3132;BME280;62090;52.330;9.104;2022-09-09T11:10:28;100365.03;;;21.25;83.05
3132;BME280;62090;52.330;9.104;2022-09-09T11:13:03;100364.00;;;20.95;82.41
3132;BME280;62090;52.330;9.104;2022-09-09T11:15:41;100364.88;;;20.94;82.96
3132;BME280;62090;52.330;9.104;2022-09-09T11:18:18;100374.06;;;20.72;83.39
3132;BME280;62090;52.330;9.104;2022-09-09T11:20:53;100382.09;;;20.60;83.20
3132;BME280;62090;52.330;9.104;2022-09-09T11:23:26;100371.25;;;20.43;84.98
3132;BME280;62090;52.330;9.104;2022-09-09T11:26:01;100379.72;;;20.51;84.88
3132;BME280;62090;52.330;9.104;2022-09-09T11:28:46;100384.44;;;20.72;84.82
3132;BME280;62090;52.330;9.104;2022-09-09T11:31:37;100387.91;;;21.06;84.83
3132;BME280;62090;52.330;9.104;2022-09-09T11:34:27;100329.88;;;21.14;84.75
3132;BME280;62090;52.330;9.104;2022-09-09T11:37:44;100376.81;;;21.69;83.16
3132;BME280;62090;52.330;9.104;2022-09-09T11:40:21;100360.59;;;21.94;82.14
3132;BME280;62090;52.330;9.104;2022-09-09T11:43:01;100355.97;;;22.34;76.64
3132;BME280;62090;52.330;9.104;2022-09-09T11:45:34;100358.91;;;22.51;73.95
3132;BME280;62090;52.330;9.104;2022-09-09T11:48:22;100360.28;;;22.63;72.96
3132;BME280;62090;52.330;9.104;2022-09-09T11:50:58;100348.19;;;22.62;75.14
3132;BME280;62090;52.330;9.104;2022-09-09T11:53:29;100337.72;;;22.63;76.70
3132;BME280;62090;52.330;9.104;2022-09-09T11:56:06;100339.25;;;22.70;77.01
3132;BME280;62090;52.330;9.104;2022-09-09T11:58:39;100325.00;;;22.84;75.35
3132;BME280;62090;52.330;9.104;2022-09-09T12:01:26;100337.03;;;22.86;73.99
3132;BME280;62090;52.330;9.104;2022-09-09T12:04:10;100323.59;;;22.73;72.91
3132;BME280;62090;52.330;9.104;2022-09-09T12:06:50;100323.38;;;22.80;74.10
3132;BME280;62090;52.330;9.104;2022-09-09T12:09:27;100321.78;;;22.76;76.71
3132;BME280;62090;52.330;9.104;2022-09-09T12:12:06;100329.78;;;22.96;75.50
3132;BME280;62090;52.330;9.104;2022-09-09T12:14:38;100322.44;;;23.08;74.11
3132;BME280;62090;52.330;9.104;2022-09-09T12:17:19;100319.53;;;23.17;71.35
3132;BME280;62090;52.330;9.104;2022-09-09T12:20:04;100325.47;;;23.21;71.95
3132;BME280;62090;52.330;9.104;2022-09-09T12:22:45;100301.75;;;23.30;69.51
3132;BME280;62090;52.330;9.104;2022-09-09T12:25:23;100325.25;;;23.02;69.68
3132;BME280;62090;52.330;9.104;2022-09-09T12:28:05;100334.13;;;22.95;69.71
3132;BME280;62090;52.330;9.104;2022-09-09T12:30:41;100338.84;;;22.56;68.73
3132;BME280;62090;52.330;9.104;2022-09-09T12:33:17;100343.41;;;22.48;68.50
3132;BME280;62090;52.330;9.104;2022-09-09T12:35:54;100329.19;;;22.60;68.26
3132;BME280;62090;52.330;9.104;2022-09-09T12:38:32;100332.28;;;22.45;67.94
3132;BME280;62090;52.330;9.104;2022-09-09T12:41:03;100314.31;;;22.65;67.13
3132;BME280;62090;52.330;9.104;2022-09-09T12:43:33;100333.78;;;22.80;68.82
3132;BME280;62090;52.330;9.104;2022-09-09T12:46:09;100318.88;;;23.11;66.82
3132;BME280;62090;52.330;9.104;2022-09-09T12:48:45;100334.72;;;23.30;66.92
3132;BME280;62090;52.330;9.104;2022-09-09T12:51:24;100273.03;;;23.08;65.91
3132;BME280;62090;52.330;9.104;2022-09-09T12:56:33;100317.69;;;23.21;66.29
3132;BME280;62090;52.330;9.104;2022-09-09T12:59:03;100317.19;;;23.10;67.47
3132;BME280;62090;52.330;9.104;2022-09-09T13:01:33;100324.06;;;23.11;66.55
3132;BME280;62090;52.330;9.104;2022-09-09T13:04:19;100320.31;;;23.20;65.81
3132;BME280;62090;52.330;9.104;2022-09-09T13:06:53;100320.69;;;23.34;64.90
3132;BME280;62090;52.330;9.104;2022-09-09T13:09:23;100302.78;;;23.26;66.61
3132;BME280;62090;52.330;9.104;2022-09-09T13:11:56;100313.38;;;23.20;65.70
3132;BME280;62090;52.330;9.104;2022-09-09T13:14:29;100318.66;;;23.17;67.44
3132;BME280;62090;52.330;9.104;2022-09-09T13:17:06;100321.88;;;23.50;66.22
3132;BME280;62090;52.330;9.104;2022-09-09T13:19:47;100312.00;;;23.60;64.41
3132;BME280;62090;52.330;9.104;2022-09-09T13:22:29;100310.28;;;23.58;65.67
3132;BME280;62090;52.330;9.104;2022-09-09T13:25:04;100314.81;;;23.29;63.46
3132;BME280;62090;52.330;9.104;2022-09-09T13:27:36;100302.50;;;23.09;66.69
3132;BME280;62090;52.330;9.104;2022-09-09T13:30:20;100305.53;;;22.95;65.01
3132;BME280;62090;52.330;9.104;2022-09-09T13:33:21;100311.09;;;22.85;64.00
3132;BME280;62090;52.330;9.104;2022-09-09T13:35:54;100307.63;;;22.84;66.98
3132;BME280;62090;52.330;9.104;2022-09-09T13:38:29;100301.47;;;23.13;65.57
3132;BME280;62090;52.330;9.104;2022-09-09T13:41:02;100296.56;;;23.30;64.33
3132;BME280;62090;52.330;9.104;2022-09-09T13:43:38;100299.56;;;23.18;64.18
3132;BME280;62090;52.330;9.104;2022-09-09T13:46:25;100275.38;;;23.16;63.03
3132;BME280;62090;52.330;9.104;2022-09-09T13:48:57;100302.38;;;23.12;65.04
3132;BME280;62090;52.330;9.104;2022-09-09T13:51:32;100276.53;;;22.83;64.76